Nearby METAR Reports

 

NZAA - Auckland Intl Ar, New Zealand
Distance from station: SW 18km
Updated: 25/01/2020 06:00
Overcast
Overcast
 Wind from SE
Wind: SE 7 km/h
Temperature: 18°C
Dew Point: 16°C
Humidity: 88%
Barometer: 1017 hPa
Clouds: Overcast
Visibility: 10 km
Cloud details: Few Clouds 488 m
Overcast 792 m
2020/01/24 17:00 NZAA 241700Z AUTO 13004KT 9999 FEW016/// OVC026/// 18/16 Q1017 NOSIG
NZWN - Wellington Intl, New Zealand
Distance from station: S 493km
Updated: 25/01/2020 06:00
Overcast
Overcast
 Wind from NNE
Wind: NNE 31 km/h
Temperature: 17°C
Dew Point: 13°C
Humidity: 77%
Barometer: 1014 hPa
Clouds: Overcast
Visibility: 10 km
Cloud details: Overcast 579 m
2020/01/24 17:00 NZWN 241700Z AUTO 02017KT 9999 OVC019/// 17/13 Q1014 NOSIG
 
NZCH - Christchurch Int, New Zealand
Distance from station: SSW 759km
Updated: 25/01/2020 06:00
Overcast
Overcast
 Wind from ENE
Wind: ENE 13 km/h
Temperature: 16°C
Dew Point: 16°C
Humidity: 100%
Barometer: 1011 hPa
Clouds: Overcast
Visibility: 10 km
Cloud details: Overcast 152 m
2020/01/24 17:00 NZCH 241700Z AUTO 06007KT 9999 OVC005/// 16/16 Q1011 NOSIG
YSNF - Norfolk Island A, Australia
Distance from station: NW 1091km
Updated: 25/01/2020 06:00
Partly cloudy
Partly cloudy
 Wind from E
Wind: E 17 km/h
Temperature: 21°C
Dew Point: 16°C
Humidity: 73%
Barometer: 1016 hPa
Clouds: Partly cloudy
Visibility: 10 km
Cloud details: Partly cloudy 732 m
Partly cloudy 945 m
2020/01/24 17:00 YSNF 241700Z AUTO 09009KT 9999 // SCT024 SCT031 21/16 Q1016